createdAt,value
2022-11-14T00:00:56.124Z,11.97
2022-11-14T00:03:22.864Z,13.33
2022-11-14T00:05:49.496Z,13.20
2022-11-14T00:08:21.590Z,13.07
2022-11-14T00:10:56.624Z,15.33
2022-11-14T00:13:23.547Z,14.90
2022-11-14T00:15:54.304Z,18.20
2022-11-14T00:18:21.031Z,21.37
2022-11-14T00:20:49.586Z,28.40
2022-11-14T00:23:16.231Z,16.13
2022-11-14T00:25:44.516Z,11.40
2022-11-14T00:28:11.196Z,11.10
2022-11-14T00:30:37.911Z,10.97
2022-11-14T00:33:04.572Z,14.13
2022-11-14T00:35:31.282Z,15.70
2022-11-14T00:37:57.943Z,16.60
2022-11-14T00:40:25.771Z,28.40
2022-11-14T00:42:52.394Z,21.30
2022-11-14T00:45:18.994Z,10.33
2022-11-14T00:47:45.695Z,13.67
2022-11-14T00:50:12.334Z,12.70
2022-11-14T00:52:38.990Z,14.53
2022-11-14T00:55:06.456Z,15.50
2022-11-14T00:57:33.107Z,14.83
2022-11-14T00:59:59.748Z,14.50
2022-11-14T01:02:26.373Z,20.33
2022-11-14T01:04:53.115Z,14.47
2022-11-14T01:07:19.721Z,15.67
2022-11-14T01:09:46.497Z,17.97
2022-11-14T01:12:13.124Z,20.30
2022-11-14T01:14:40.988Z,17.93
2022-11-14T01:17:07.851Z,21.10
2022-11-14T01:19:34.854Z,19.20
2022-11-14T01:22:05.857Z,25.47
2022-11-14T01:24:34.113Z,11.43
2022-11-14T01:27:01.386Z,11.03
2022-11-14T01:29:28.538Z,15.03
2022-11-14T01:31:56.051Z,13.70
2022-11-14T01:34:23.388Z,11.90
2022-11-14T01:36:50.003Z,23.07
2022-11-14T01:39:16.685Z,17.00
2022-11-14T01:41:43.290Z,15.97
2022-11-14T01:44:18.381Z,16.90
2022-11-14T01:46:55.900Z,13.30
2022-11-14T01:49:26.510Z,20.37
2022-11-14T01:52:04.716Z,18.73
2022-11-14T01:54:37.300Z,21.30
2022-11-14T01:57:06.452Z,21.63
2022-11-14T01:59:38.338Z,41.40
2022-11-14T02:02:17.949Z,26.77
2022-11-14T02:04:48.992Z,17.07
2022-11-14T02:07:16.128Z,12.23
2022-11-14T02:09:45.838Z,13.37
2022-11-14T02:12:15.981Z,12.77
2022-11-14T02:14:45.427Z,15.27
2022-11-14T02:17:30.651Z,16.43
2022-11-14T02:20:05.431Z,13.73
2022-11-14T02:22:32.721Z,13.30
2022-11-14T02:24:59.469Z,14.47
2022-11-14T02:27:26.536Z,13.27
2022-11-14T02:29:53.215Z,25.30
2022-11-14T02:32:19.893Z,18.57
2022-11-14T02:34:46.547Z,10.13
2022-11-14T02:37:13.158Z,9.07
2022-11-14T02:39:40.009Z,9.50
2022-11-14T02:42:06.769Z,10.80
2022-11-14T02:44:33.540Z,10.77
2022-11-14T02:47:00.150Z,10.17
2022-11-14T02:49:26.815Z,10.37
2022-11-14T02:51:53.437Z,9.03
2022-11-14T02:54:20.547Z,24.60
2022-11-14T02:56:47.238Z,15.43
2022-11-14T02:59:13.856Z,15.53
2022-11-14T03:01:40.647Z,11.23
2022-11-14T03:04:07.336Z,13.23
2022-11-14T03:06:34.092Z,11.07
2022-11-14T03:09:00.694Z,11.23
2022-11-14T03:11:27.418Z,11.07
2022-11-14T03:13:54.107Z,10.70
2022-11-14T03:16:20.807Z,9.63
2022-11-14T03:18:47.472Z,10.13
2022-11-14T03:21:16.990Z,12.07
2022-11-14T03:23:44.218Z,11.43
2022-11-14T03:26:12.685Z,12.90
2022-11-14T03:28:39.706Z,12.80
2022-11-14T03:31:07.804Z,12.47
2022-11-14T03:33:35.415Z,28.23
2022-11-14T03:36:03.335Z,46.40
2022-11-14T03:38:31.057Z,34.53
2022-11-14T03:40:59.151Z,22.33
2022-11-14T03:43:26.702Z,13.00
2022-11-14T03:45:53.353Z,23.40
2022-11-14T03:48:20.009Z,21.00
2022-11-14T03:50:46.639Z,23.90
2022-11-14T03:53:13.319Z,13.60
2022-11-14T03:55:40.218Z,10.23
2022-11-14T03:58:06.961Z,13.40
2022-11-14T04:00:33.682Z,14.47
2022-11-14T04:03:00.401Z,68.77
2022-11-14T04:05:27.301Z,39.67
2022-11-14T04:07:54.000Z,21.63
2022-11-14T04:10:20.903Z,19.13
2022-11-14T04:12:52.222Z,26.60
2022-11-14T04:15:19.332Z,22.33
2022-11-14T04:17:46.451Z,22.80
2022-11-14T04:20:14.302Z,20.13
2022-11-14T04:22:40.968Z,22.63
2022-11-14T04:25:09.116Z,21.93
2022-11-14T04:27:36.070Z,21.57
2022-11-14T04:30:03.490Z,19.97
2022-11-14T04:32:30.128Z,27.83
2022-11-14T04:34:56.937Z,29.37
2022-11-14T04:37:23.870Z,32.73
2022-11-14T04:39:50.569Z,26.60
2022-11-14T04:42:17.236Z,15.20
2022-11-14T04:44:43.887Z,14.40
2022-11-14T04:47:10.701Z,13.63
2022-11-14T04:49:37.339Z,24.47
2022-11-14T04:52:04.068Z,30.00
2022-11-14T04:54:30.830Z,33.47
2022-11-14T04:56:57.689Z,35.97
2022-11-14T04:59:24.324Z,42.97
2022-11-14T05:01:51.168Z,41.23
2022-11-14T05:04:17.919Z,42.00
2022-11-14T05:06:44.634Z,41.97
2022-11-14T05:09:11.343Z,40.67
2022-11-14T05:11:37.985Z,32.67
2022-11-14T05:14:04.828Z,32.60
2022-11-14T05:16:31.406Z,29.23
2022-11-14T05:18:58.065Z,24.83
2022-11-14T05:21:24.737Z,28.70
2022-11-14T05:23:51.372Z,32.00
2022-11-14T05:26:18.931Z,30.50
2022-11-14T05:28:45.813Z,24.87
2022-11-14T05:31:15.378Z,21.47
2022-11-14T05:33:42.056Z,27.47
2022-11-14T05:36:11.861Z,32.63
2022-11-14T05:38:38.862Z,30.30
2022-11-14T05:41:11.020Z,31.67
2022-11-14T05:43:37.884Z,30.97
2022-11-14T05:46:06.769Z,30.10
2022-11-14T05:48:33.727Z,30.50
2022-11-14T05:51:02.371Z,30.00
2022-11-14T05:53:30.631Z,41.07
2022-11-14T05:56:04.551Z,42.83
2022-11-14T05:58:33.151Z,39.87
2022-11-14T06:01:07.883Z,37.67
2022-11-14T06:03:37.209Z,41.63
2022-11-14T06:06:06.297Z,41.10
2022-11-14T06:08:33.560Z,40.07
2022-11-14T06:11:11.754Z,38.73
2022-11-14T06:13:38.712Z,37.37
2022-11-14T06:16:07.903Z,37.37
2022-11-14T06:18:35.310Z,35.70
2022-11-14T06:21:04.229Z,29.70
2022-11-14T06:23:31.171Z,24.30
2022-11-14T06:26:03.069Z,23.80
2022-11-14T06:28:30.775Z,25.43
2022-11-14T06:31:02.317Z,26.75
2022-11-14T06:33:30.169Z,26.38
2022-11-14T06:36:01.619Z,28.25
2022-11-14T06:38:31.319Z,30.23
2022-11-14T06:41:02.752Z,19.95
2022-11-14T06:43:29.516Z,19.20
2022-11-14T06:45:56.320Z,17.42
2022-11-14T06:48:22.945Z,31.80
2022-11-14T06:50:56.443Z,21.75
2022-11-14T06:53:23.493Z,19.13
2022-11-14T06:56:01.856Z,19.05
2022-11-14T06:58:31.243Z,20.10
2022-11-14T07:01:04.843Z,21.05
2022-11-14T07:03:31.699Z,21.10
2022-11-14T07:05:59.364Z,19.70
2022-11-14T07:08:26.007Z,21.08
2022-11-14T07:10:53.308Z,22.20
2022-11-14T07:13:20.055Z,31.13
2022-11-14T07:15:53.998Z,20.98
2022-11-14T07:18:21.223Z,19.63
2022-11-14T07:20:47.910Z,20.33
2022-11-14T07:23:18.636Z,20.63
2022-11-14T07:25:49.433Z,22.27
2022-11-14T07:28:16.101Z,22.55
2022-11-14T07:30:42.839Z,22.73
2022-11-14T07:33:10.194Z,21.98
2022-11-14T07:35:40.026Z,22.92
2022-11-14T07:38:06.652Z,22.02
2022-11-14T07:40:33.302Z,23.98
2022-11-14T07:43:01.590Z,23.63
2022-11-14T07:45:29.379Z,20.25
2022-11-14T07:47:57.625Z,20.10
2022-11-14T07:50:25.363Z,19.27
2022-11-14T07:52:56.037Z,19.50
2022-11-14T07:55:22.849Z,16.67
2022-11-14T07:57:53.582Z,14.40
2022-11-14T08:00:20.384Z,13.07
2022-11-14T08:02:47.544Z,12.45
2022-11-14T08:05:14.297Z,13.10
2022-11-14T08:07:40.968Z,13.02
2022-11-14T08:10:08.888Z,13.15
2022-11-14T08:12:35.524Z,12.57
2022-11-14T08:15:02.178Z,13.20
2022-11-14T08:17:28.836Z,14.70
2022-11-14T08:19:55.439Z,13.73
2022-11-14T08:22:22.107Z,13.95
2022-11-14T08:24:48.704Z,14.07
2022-11-14T08:27:15.448Z,12.57
2022-11-14T08:29:42.048Z,12.10
2022-11-14T08:32:09.082Z,11.95
2022-11-14T08:34:36.917Z,12.40
2022-11-14T08:37:03.779Z,11.52
2022-11-14T08:39:30.444Z,9.52
2022-11-14T08:41:57.143Z,8.02
2022-11-14T08:44:24.000Z,7.43
2022-11-14T08:46:51.229Z,5.93
2022-11-14T08:49:18.099Z,4.80
2022-11-14T08:51:44.946Z,5.18
2022-11-14T08:54:11.855Z,5.68
2022-11-14T08:56:38.585Z,5.82
2022-11-14T08:59:05.349Z,5.28
2022-11-14T09:01:35.135Z,6.47
2022-11-14T09:04:02.275Z,6.70
2022-11-14T09:06:29.151Z,7.10
2022-11-14T09:08:56.098Z,7.72
2022-11-14T09:11:22.747Z,7.90
2022-11-14T09:13:49.406Z,7.90
2022-11-14T09:16:16.046Z,9.02
2022-11-14T09:18:42.843Z,8.35
2022-11-14T09:21:11.005Z,8.73
2022-11-14T09:23:37.762Z,8.55
2022-11-14T09:26:09.010Z,8.23
2022-11-14T09:28:36.406Z,8.68
2022-11-14T09:31:09.203Z,9.43
2022-11-14T09:33:36.096Z,10.85
2022-11-14T09:36:05.829Z,9.45
2022-11-14T09:38:38.179Z,9.13
2022-11-14T09:41:08.516Z,8.55
2022-11-14T09:44:05.675Z,7.55
2022-11-14T09:46:39.335Z,7.78
2022-11-14T09:49:25.397Z,6.57
2022-11-14T09:51:59.387Z,8.07
2022-11-14T09:54:39.353Z,8.02
2022-11-14T09:57:15.483Z,7.38
2022-11-14T09:59:42.308Z,7.07
2022-11-14T10:02:57.154Z,7.43
2022-11-14T10:05:48.503Z,7.95
2022-11-14T10:08:17.906Z,6.60
2022-11-14T10:10:47.895Z,6.50
2022-11-14T10:13:17.504Z,7.40
2022-11-14T10:16:09.540Z,6.18
2022-11-14T10:19:02.533Z,6.43
2022-11-14T10:22:07.639Z,6.47
2022-11-14T10:24:34.205Z,5.60
2022-11-14T10:27:04.938Z,6.15
2022-11-14T10:29:31.639Z,6.65
2022-11-14T10:32:04.271Z,7.13
2022-11-14T10:34:39.292Z,6.70
2022-11-14T10:39:51.387Z,7.15
2022-11-14T10:42:26.058Z,7.38
2022-11-14T10:45:02.155Z,9.15
2022-11-14T10:47:37.606Z,6.88
2022-11-14T10:50:18.043Z,6.30
2022-11-14T10:52:47.178Z,6.80
2022-11-14T10:55:18.713Z,7.45
2022-11-14T10:57:46.259Z,7.57
2022-11-14T11:00:23.167Z,7.20
2022-11-14T11:02:51.619Z,7.15
2022-11-14T11:05:21.801Z,7.13
2022-11-14T11:08:28.647Z,7.20
2022-11-14T11:13:55.742Z,6.97
2022-11-14T11:16:24.522Z,7.30
2022-11-14T11:18:51.690Z,7.05
2022-11-14T11:21:21.765Z,7.78
2022-11-14T11:23:55.244Z,6.28
2022-11-14T11:26:30.979Z,6.97
2022-11-14T11:29:06.799Z,6.57
2022-11-14T11:31:53.667Z,6.65
2022-11-14T11:34:24.406Z,8.93
2022-11-14T11:36:59.078Z,12.95
2022-11-14T11:39:30.560Z,7.47
2022-11-14T11:42:10.614Z,7.57
2022-11-14T11:44:46.195Z,7.45
2022-11-14T11:47:17.402Z,7.50
2022-11-14T11:49:54.321Z,7.43
2022-11-14T11:52:34.196Z,7.15
2022-11-14T11:55:09.665Z,7.80
2022-11-14T11:57:43.303Z,7.65
2022-11-14T12:00:20.627Z,7.65
2022-11-14T12:02:51.017Z,7.57
2022-11-14T12:05:37.377Z,7.35
2022-11-14T12:10:39.075Z,6.78
2022-11-14T12:13:24.969Z,6.38
2022-11-14T12:16:13.204Z,6.93
2022-11-14T12:18:43.840Z,6.88
2022-11-14T12:21:19.772Z,7.05
2022-11-14T12:24:22.148Z,8.13
2022-11-14T12:27:27.204Z,6.47
2022-11-14T12:30:09.231Z,6.45
2022-11-14T12:32:57.605Z,6.93
2022-11-14T12:35:32.315Z,7.80
2022-11-14T12:38:02.359Z,7.63
2022-11-14T12:40:37.818Z,7.72
2022-11-14T12:43:30.583Z,6.88
2022-11-14T12:46:03.127Z,9.07
2022-11-14T12:48:32.910Z,7.75
2022-11-14T12:51:01.002Z,8.40
2022-11-14T12:53:36.668Z,8.70
2022-11-14T12:56:25.607Z,7.78
2022-11-14T12:59:20.727Z,8.00
2022-11-14T13:01:53.654Z,8.73
2022-11-14T13:04:35.866Z,8.52
2022-11-14T13:07:08.835Z,7.25
2022-11-14T13:10:13.827Z,8.88
2022-11-14T13:13:18.189Z,10.45
2022-11-14T13:16:12.109Z,9.63
2022-11-14T13:19:10.680Z,8.98
2022-11-14T13:21:47.203Z,10.18
2022-11-14T13:24:16.243Z,10.52
2022-11-14T13:26:52.039Z,9.43
2022-11-14T13:29:40.205Z,7.60
2022-11-14T13:32:33.431Z,9.27
2022-11-14T13:35:04.890Z,8.18
2022-11-14T13:37:53.254Z,9.00
2022-11-14T13:40:30.416Z,10.23
2022-11-14T13:43:14.941Z,10.05
2022-11-14T13:45:49.065Z,9.48
2022-11-14T13:48:26.211Z,10.13
2022-11-14T13:51:10.223Z,8.85
2022-11-14T13:53:46.345Z,10.50
2022-11-14T13:56:20.199Z,10.57
2022-11-14T13:58:55.691Z,10.50
2022-11-14T14:01:30.372Z,11.52
2022-11-14T14:04:05.906Z,12.63
2022-11-14T14:06:39.737Z,11.82
2022-11-14T14:09:24.992Z,13.80
2022-11-14T14:12:17.424Z,15.13
2022-11-14T14:14:53.274Z,13.07
2022-11-14T14:17:44.549Z,13.20
2022-11-14T14:20:29.504Z,13.43
2022-11-14T14:23:01.916Z,12.73
2022-11-14T14:25:52.746Z,13.27
2022-11-14T14:28:38.185Z,16.25
2022-11-14T14:31:12.601Z,18.33
2022-11-14T14:33:44.650Z,18.58
2022-11-14T14:36:29.248Z,15.65
2022-11-14T14:39:17.705Z,17.27
2022-11-14T14:41:44.916Z,29.00
2022-11-14T14:44:20.165Z,33.30
2022-11-14T14:46:47.537Z,25.27
2022-11-14T14:49:23.519Z,24.05
2022-11-14T14:51:53.294Z,37.38
2022-11-14T14:54:26.967Z,32.50
2022-11-14T14:57:02.864Z,29.02
2022-11-14T14:59:31.140Z,29.60
2022-11-14T15:01:58.371Z,31.35
2022-11-14T15:04:27.972Z,34.25
2022-11-14T15:06:57.424Z,30.92
2022-11-14T15:09:32.460Z,32.75
2022-11-14T15:12:01.450Z,42.17
2022-11-14T15:14:31.883Z,42.08
2022-11-14T15:17:00.256Z,43.92
2022-11-14T15:19:41.103Z,45.42
2022-11-14T15:22:19.926Z,46.50
2022-11-14T15:25:14.881Z,51.53
2022-11-14T15:27:53.750Z,56.47
2022-11-14T15:30:24.034Z,59.63
2022-11-14T15:32:53.778Z,60.63
2022-11-14T15:35:25.139Z,75.25
2022-11-14T15:41:11.760Z,37.70
2022-11-14T15:43:44.548Z,39.60
2022-11-14T15:46:28.027Z,45.72
2022-11-14T15:48:55.561Z,35.53
2022-11-14T15:51:41.596Z,32.30
2022-11-14T15:54:33.059Z,39.03
2022-11-14T15:57:02.196Z,54.53
2022-11-14T15:59:30.774Z,55.13
2022-11-14T16:02:09.824Z,58.47
2022-11-14T16:04:40.636Z,75.03
2022-11-14T16:07:14.189Z,71.45
2022-11-14T16:09:41.067Z,83.03
2022-11-14T16:12:08.084Z,70.95
2022-11-14T16:14:35.010Z,82.85
2022-11-14T16:17:02.268Z,67.05
2022-11-14T16:19:29.130Z,56.80
2022-11-14T16:22:02.719Z,72.75
2022-11-14T16:24:33.925Z,76.60
2022-11-14T16:27:01.285Z,69.88
2022-11-14T16:29:28.070Z,84.80
2022-11-14T16:31:55.548Z,81.82
2022-11-14T16:34:25.288Z,80.95
2022-11-14T16:37:02.668Z,81.20
2022-11-14T16:39:29.769Z,90.72
2022-11-14T16:42:03.062Z,79.13
2022-11-14T16:44:31.836Z,69.32
2022-11-14T16:47:00.286Z,83.60
2022-11-14T16:49:27.120Z,89.25
2022-11-14T16:51:56.698Z,85.72
2022-11-14T16:54:23.416Z,74.18
2022-11-14T16:56:50.302Z,63.92
2022-11-14T16:59:17.042Z,68.22
2022-11-14T17:01:44.136Z,64.30
2022-11-14T17:04:10.881Z,78.95
2022-11-14T17:06:37.596Z,58.47
2022-11-14T17:09:04.368Z,51.70
2022-11-14T17:11:31.774Z,45.83
2022-11-14T17:13:58.511Z,39.75
2022-11-14T17:16:25.236Z,35.45
2022-11-14T17:18:55.929Z,43.85
2022-11-14T17:21:23.932Z,55.63
2022-11-14T17:23:55.704Z,53.40
2022-11-14T17:26:23.172Z,57.88
2022-11-14T17:28:50.064Z,68.72
2022-11-14T17:31:17.604Z,69.80
2022-11-14T17:33:44.623Z,72.15
2022-11-14T17:36:11.727Z,78.43
2022-11-14T17:38:38.967Z,103.25
2022-11-14T17:41:06.094Z,74.30
2022-11-14T17:43:38.760Z,64.38
2022-11-14T17:46:11.147Z,43.53
2022-11-14T17:48:42.782Z,39.92
2022-11-14T17:51:13.145Z,39.40
2022-11-14T17:53:40.630Z,32.72
2022-11-14T17:56:10.589Z,39.95
2022-11-14T17:58:37.253Z,45.35
2022-11-14T18:01:12.905Z,45.00
2022-11-14T18:03:39.756Z,46.33
2022-11-14T18:06:12.188Z,39.28
2022-11-14T18:08:39.287Z,42.05
2022-11-14T18:11:08.853Z,38.58
2022-11-14T18:13:35.831Z,39.38
2022-11-14T18:16:14.342Z,41.95
2022-11-14T18:18:41.655Z,43.63
2022-11-14T18:21:15.128Z,43.30
2022-11-14T18:23:42.447Z,47.30
2022-11-14T18:26:13.942Z,46.53
2022-11-14T18:28:40.958Z,43.50
2022-11-14T18:31:10.935Z,46.88
2022-11-14T18:33:38.912Z,55.45
2022-11-14T18:36:10.153Z,49.88
2022-11-14T18:38:36.880Z,52.33
2022-11-14T18:41:08.286Z,49.25
2022-11-14T18:43:35.123Z,47.80
2022-11-14T18:46:12.745Z,44.80
2022-11-14T18:48:40.486Z,44.33
2022-11-14T18:51:11.249Z,44.20
2022-11-14T18:53:38.347Z,38.85
2022-11-14T18:56:06.115Z,42.72
2022-11-14T18:58:33.379Z,40.08
2022-11-14T19:01:24.109Z,40.80
2022-11-14T19:03:52.475Z,42.17
2022-11-14T19:06:19.616Z,45.25
2022-11-14T19:08:46.498Z,50.63
2022-11-14T19:11:35.015Z,55.70
2022-11-14T19:14:05.317Z,81.28
2022-11-14T19:16:34.257Z,87.13
2022-11-14T19:19:01.859Z,59.85
2022-11-14T19:21:29.887Z,41.60
2022-11-14T19:23:57.389Z,48.78
2022-11-14T19:26:24.035Z,53.45
2022-11-14T19:28:50.774Z,51.47
2022-11-14T19:31:19.166Z,50.63
2022-11-14T19:33:46.174Z,50.10
2022-11-14T19:36:44.920Z,56.80
2022-11-14T19:39:05.581Z,74.20
2022-11-14T19:41:32.418Z,95.55
2022-11-14T19:44:01.769Z,105.32
2022-11-14T19:46:31.592Z,82.88
2022-11-14T19:48:59.890Z,50.45
2022-11-14T19:51:28.260Z,49.38
2022-11-14T19:53:55.816Z,43.00
2022-11-14T19:56:23.516Z,41.73
2022-11-14T19:58:52.125Z,44.33
2022-11-14T20:01:21.449Z,38.72
2022-11-14T20:03:56.646Z,33.65
2022-11-14T20:06:26.408Z,33.30
2022-11-14T20:08:54.423Z,33.67
2022-11-14T20:11:22.470Z,28.67
2022-11-14T20:13:49.897Z,35.67
2022-11-14T20:16:19.354Z,34.15
2022-11-14T20:18:53.264Z,35.83
2022-11-14T20:21:25.393Z,31.33
2022-11-14T20:23:53.177Z,31.37
2022-11-14T20:26:20.765Z,30.97
2022-11-14T20:28:50.666Z,32.27
2022-11-14T20:31:20.151Z,44.33
2022-11-14T20:33:48.634Z,66.30
2022-11-14T20:36:18.419Z,83.30
2022-11-14T20:38:45.517Z,47.13
2022-11-14T20:41:12.693Z,42.40
2022-11-14T20:43:39.883Z,46.83
2022-11-14T20:46:12.384Z,55.73
2022-11-14T20:48:39.632Z,64.82
2022-11-14T20:51:12.601Z,55.20
2022-11-14T20:53:40.243Z,49.13
2022-11-14T20:56:07.691Z,43.93
2022-11-14T20:58:34.901Z,45.25
2022-11-14T21:01:02.263Z,54.70
2022-11-14T21:03:29.410Z,50.77
2022-11-14T21:05:56.823Z,49.53
2022-11-14T21:08:23.542Z,39.57
2022-11-14T21:10:57.340Z,43.20
2022-11-14T21:13:42.523Z,39.10
2022-11-14T21:16:12.311Z,42.17
2022-11-14T21:18:41.628Z,36.73
2022-11-14T21:21:18.837Z,37.17
2022-11-14T21:26:18.695Z,48.15
2022-11-14T21:28:48.309Z,45.08
2022-11-14T21:31:28.524Z,38.83
2022-11-14T21:33:58.927Z,38.27
2022-11-14T21:39:15.457Z,45.43
2022-11-14T21:41:43.362Z,30.93
2022-11-14T21:44:16.422Z,22.75
2022-11-14T21:46:45.401Z,21.00
2022-11-14T21:49:12.107Z,19.00
2022-11-14T21:51:38.775Z,19.53
2022-11-14T21:54:06.536Z,19.70
2022-11-14T21:56:35.508Z,18.73
2022-11-14T21:59:14.092Z,24.43
2022-11-14T22:02:07.906Z,25.17
2022-11-14T22:04:35.475Z,25.10
2022-11-14T22:07:04.723Z,25.53
2022-11-14T22:09:32.072Z,24.23
2022-11-14T22:11:59.673Z,21.77
2022-11-14T22:14:26.586Z,21.50
2022-11-14T22:16:53.180Z,18.00
2022-11-14T22:19:20.003Z,18.73
2022-11-14T22:21:46.620Z,23.93
2022-11-14T22:24:13.325Z,24.77
2022-11-14T22:26:40.488Z,25.70
2022-11-14T22:29:07.910Z,43.43
2022-11-14T22:31:34.618Z,46.90
2022-11-14T22:34:01.426Z,51.03
2022-11-14T22:36:28.418Z,39.93
2022-11-14T22:38:56.535Z,31.47
2022-11-14T22:41:29.121Z,35.00
2022-11-14T22:43:59.298Z,29.20
2022-11-14T22:46:27.472Z,30.93
2022-11-14T22:48:55.163Z,34.47
2022-11-14T22:51:24.308Z,31.27
2022-11-14T22:53:53.071Z,22.73
2022-11-14T22:56:21.850Z,21.73
2022-11-14T22:58:48.885Z,23.00
2022-11-14T23:01:25.172Z,21.90
2022-11-14T23:03:56.815Z,29.23
2022-11-14T23:06:24.223Z,24.37
2022-11-14T23:08:51.540Z,31.20
2022-11-14T23:11:24.102Z,20.50
2022-11-14T23:13:53.323Z,15.50
2022-11-14T23:16:31.890Z,15.30
2022-11-14T23:19:01.691Z,15.03
2022-11-14T23:21:31.187Z,15.10
2022-11-14T23:24:00.187Z,14.50
2022-11-14T23:26:33.557Z,14.17
2022-11-14T23:29:00.479Z,14.57
2022-11-14T23:31:27.641Z,14.27
2022-11-14T23:33:56.297Z,13.60
2022-11-14T23:36:23.073Z,14.47
2022-11-14T23:38:52.808Z,15.90
2022-11-14T23:41:22.952Z,14.30
2022-11-14T23:43:50.867Z,17.70
2022-11-14T23:46:17.547Z,17.33
2022-11-14T23:48:44.303Z,16.33
2022-11-14T23:51:11.508Z,13.30
2022-11-14T23:53:38.187Z,16.57
2022-11-14T23:56:05.130Z,16.30
2022-11-14T23:58:31.861Z,23.90
